KEBS/EBS METAR and TAF weather

Enter ICAO airport designator
Station Type Date Time Source
KEBS METAR 2021/09/25 12:15 UTC NOAA

KEBS 251215Z AUTO 23005KT 02/02 A3006 RMK AO2


Station Type Date Time Source
KEBS Decoded METAR 2021/09/25 12:15 UTC NOAA

Webster City, IA, United States (KEBS) 42-26N 093-52W
Sep 25, 2021 - 08:15 AM EDT / 2021.09.25 1215 UTC
Wind: from the SW (230 degrees) at 6 MPH (5 KT):0
Temperature: 35 F (2 C)
Windchill: 30 F (-1 C):1
Dew Point: 35 F (2 C)
Relative Humidity: 100%
Pressure (altimeter): 30.06 in. Hg (1017 hPa)
ob: KEBS 251215Z AUTO 23005KT 02/02 A3006 RMK AO2
cycle: 12

Station Type Date Time Source
KEBS TAF UTC NOAA

Error!

Example: see airport list